sensor_id;sensor_type;location;lat;lon;timestamp;pressure;altitude;pressure_sealevel;temperature;humidity
11525;BME280;5819;49.648;8.330;2024-01-25T00:00:41;101623.91;;;7.36;100.00
11525;BME280;5819;49.648;8.330;2024-01-25T00:03:09;101617.00;;;7.35;100.00
11525;BME280;5819;49.648;8.330;2024-01-25T00:05:38;101608.34;;;7.40;100.00
11525;BME280;5819;49.648;8.330;2024-01-25T00:08:06;101610.94;;;7.40;100.00
11525;BME280;5819;49.648;8.330;2024-01-25T00:10:34;101615.31;;;7.31;100.00
11525;BME280;5819;49.648;8.330;2024-01-25T00:13:02;101622.22;;;7.33;100.00
11525;BME280;5819;49.648;8.330;2024-01-25T00:15:30;101625.63;;;7.37;100.00
11525;BME280;5819;49.648;8.330;2024-01-25T00:17:58;101610.44;;;7.87;100.00
11525;BME280;5819;49.648;8.330;2024-01-25T00:20:26;101612.13;;;7.93;100.00
11525;BME280;5819;49.648;8.330;2024-01-25T00:22:55;101614.47;;;8.11;100.00
11525;BME280;5819;49.648;8.330;2024-01-25T00:25:23;101613.47;;;8.24;100.00
11525;BME280;5819;49.648;8.330;2024-01-25T00:27:51;101620.41;;;8.21;100.00
11525;BME280;5819;49.648;8.330;2024-01-25T00:30:19;101620.47;;;8.18;100.00
11525;BME280;5819;49.648;8.330;2024-01-25T00:32:48;101617.75;;;8.27;100.00
11525;BME280;5819;49.648;8.330;2024-01-25T00:35:17;101620.31;;;8.27;100.00
11525;BME280;5819;49.648;8.330;2024-01-25T00:37:46;101618.63;;;8.29;100.00
11525;BME280;5819;49.648;8.330;2024-01-25T00:40:16;101608.19;;;8.33;100.00
11525;BME280;5819;49.648;8.330;2024-01-25T00:42:46;101609.94;;;8.31;100.00
11525;BME280;5819;49.648;8.330;2024-01-25T00:45:20;101606.53;;;8.29;100.00
11525;BME280;5819;49.648;8.330;2024-01-25T00:47:49;101609.19;;;8.22;100.00
11525;BME280;5819;49.648;8.330;2024-01-25T00:50:19;101610.16;;;8.13;100.00
11525;BME280;5819;49.648;8.330;2024-01-25T00:52:51;101594.41;;;8.28;100.00
11525;BME280;5819;49.648;8.330;2024-01-25T00:55:22;101588.41;;;8.23;100.00
11525;BME280;5819;49.648;8.330;2024-01-25T00:57:51;101591.81;;;8.28;100.00
11525;BME280;5819;49.648;8.330;2024-01-25T01:00:20;101594.28;;;8.40;100.00
11525;BME280;5819;49.648;8.330;2024-01-25T01:02:49;101596.53;;;8.65;100.00
11525;BME280;5819;49.648;8.330;2024-01-25T01:05:17;101593.25;;;8.52;100.00
11525;BME280;5819;49.648;8.330;2024-01-25T01:07:46;101592.44;;;8.50;100.00
11525;BME280;5819;49.648;8.330;2024-01-25T01:10:14;101596.81;;;8.45;100.00
11525;BME280;5819;49.648;8.330;2024-01-25T01:12:43;101598.41;;;8.54;100.00
11525;BME280;5819;49.648;8.330;2024-01-25T01:15:11;101599.59;;;8.30;100.00
11525;BME280;5819;49.648;8.330;2024-01-25T01:17:39;101595.28;;;8.30;100.00
11525;BME280;5819;49.648;8.330;2024-01-25T01:20:07;101586.81;;;8.13;100.00
11525;BME280;5819;49.648;8.330;2024-01-25T01:22:35;101591.41;;;7.91;100.00
11525;BME280;5819;49.648;8.330;2024-01-25T01:25:05;101604.53;;;7.75;100.00
11525;BME280;5819;49.648;8.330;2024-01-25T01:27:33;101602.94;;;7.63;100.00
11525;BME280;5819;49.648;8.330;2024-01-25T01:30:03;101603.03;;;7.54;100.00
11525;BME280;5819;49.648;8.330;2024-01-25T01:32:30;101600.53;;;7.45;100.00
11525;BME280;5819;49.648;8.330;2024-01-25T01:34:58;101604.75;;;7.57;100.00
11525;BME280;5819;49.648;8.330;2024-01-25T01:37:26;101610.66;;;7.68;100.00
11525;BME280;5819;49.648;8.330;2024-01-25T01:39:55;101609.84;;;7.63;100.00
11525;BME280;5819;49.648;8.330;2024-01-25T01:42:24;101604.63;;;7.69;100.00
11525;BME280;5819;49.648;8.330;2024-01-25T01:44:52;101610.75;;;7.59;100.00
11525;BME280;5819;49.648;8.330;2024-01-25T01:47:22;101618.53;;;7.56;100.00
11525;BME280;5819;49.648;8.330;2024-01-25T01:49:50;101622.00;;;7.58;100.00
11525;BME280;5819;49.648;8.330;2024-01-25T01:52:18;101628.00;;;7.60;100.00
11525;BME280;5819;49.648;8.330;2024-01-25T01:54:46;101628.94;;;7.51;100.00
11525;BME280;5819;49.648;8.330;2024-01-25T01:57:16;101627.22;;;7.53;100.00
11525;BME280;5819;49.648;8.330;2024-01-25T01:59:44;101621.06;;;7.65;100.00
11525;BME280;5819;49.648;8.330;2024-01-25T02:02:13;101623.59;;;7.69;100.00
11525;BME280;5819;49.648;8.330;2024-01-25T02:04:43;101624.50;;;7.65;100.00
11525;BME280;5819;49.648;8.330;2024-01-25T02:07:11;101621.88;;;7.70;100.00
11525;BME280;5819;49.648;8.330;2024-01-25T02:09:41;101629.66;;;7.70;100.00
11525;BME280;5819;49.648;8.330;2024-01-25T02:12:09;101627.06;;;7.70;100.00
11525;BME280;5819;49.648;8.330;2024-01-25T02:14:37;101629.59;;;7.71;100.00
11525;BME280;5819;49.648;8.330;2024-01-25T02:17:05;101628.66;;;7.78;100.00
11525;BME280;5819;49.648;8.330;2024-01-25T02:19:33;101633.81;;;7.83;100.00
11525;BME280;5819;49.648;8.330;2024-01-25T02:22:04;101639.78;;;7.88;100.00
11525;BME280;5819;49.648;8.330;2024-01-25T02:24:34;101627.72;;;7.87;100.00
11525;BME280;5819;49.648;8.330;2024-01-25T02:27:02;101619.88;;;7.93;100.00
11525;BME280;5819;49.648;8.330;2024-01-25T02:29:31;101622.53;;;7.90;100.00
11525;BME280;5819;49.648;8.330;2024-01-25T02:31:59;101633.84;;;7.78;100.00
11525;BME280;5819;49.648;8.330;2024-01-25T02:34:28;101639.22;;;7.60;100.00
11525;BME280;5819;49.648;8.330;2024-01-25T02:36:56;101641.06;;;7.47;100.00
11525;BME280;5819;49.648;8.330;2024-01-25T02:39:24;101630.69;;;7.47;100.00
11525;BME280;5819;49.648;8.330;2024-01-25T02:41:53;101647.19;;;7.34;100.00
11525;BME280;5819;49.648;8.330;2024-01-25T02:44:21;101654.19;;;7.23;100.00
11525;BME280;5819;49.648;8.330;2024-01-25T02:46:49;101655.97;;;7.18;100.00
11525;BME280;5819;49.648;8.330;2024-01-25T02:49:17;101644.75;;;7.19;100.00
11525;BME280;5819;49.648;8.330;2024-01-25T02:51:45;101634.44;;;7.16;100.00
11525;BME280;5819;49.648;8.330;2024-01-25T02:54:13;101647.41;;;7.13;100.00
11525;BME280;5819;49.648;8.330;2024-01-25T02:56:41;101643.00;;;7.26;100.00
11525;BME280;5819;49.648;8.330;2024-01-25T02:59:11;101648.09;;;7.33;100.00
11525;BME280;5819;49.648;8.330;2024-01-25T03:01:40;101651.47;;;7.41;100.00
11525;BME280;5819;49.648;8.330;2024-01-25T03:04:09;101646.38;;;7.34;100.00
11525;BME280;5819;49.648;8.330;2024-01-25T03:06:37;101645.38;;;7.47;100.00
11525;BME280;5819;49.648;8.330;2024-01-25T03:09:05;101640.91;;;7.64;100.00
11525;BME280;5819;49.648;8.330;2024-01-25T03:11:33;101647.72;;;7.73;100.00
11525;BME280;5819;49.648;8.330;2024-01-25T03:14:01;101649.63;;;7.57;100.00
11525;BME280;5819;49.648;8.330;2024-01-25T03:16:30;101639.13;;;7.68;100.00
11525;BME280;5819;49.648;8.330;2024-01-25T03:18:58;101659.94;;;7.59;100.00
11525;BME280;5819;49.648;8.330;2024-01-25T03:21:26;101645.38;;;7.50;100.00
11525;BME280;5819;49.648;8.330;2024-01-25T03:23:54;101652.44;;;7.30;100.00
11525;BME280;5819;49.648;8.330;2024-01-25T03:26:22;101663.63;;;7.33;100.00
11525;BME280;5819;49.648;8.330;2024-01-25T03:28:51;101672.19;;;7.38;100.00
11525;BME280;5819;49.648;8.330;2024-01-25T03:31:19;101660.94;;;7.42;100.00
11525;BME280;5819;49.648;8.330;2024-01-25T03:33:48;101663.56;;;7.39;100.00
11525;BME280;5819;49.648;8.330;2024-01-25T03:36:16;101667.06;;;7.31;100.00
11525;BME280;5819;49.648;8.330;2024-01-25T03:38:44;101657.59;;;7.33;100.00
11525;BME280;5819;49.648;8.330;2024-01-25T03:41:12;101660.22;;;7.28;100.00
11525;BME280;5819;49.648;8.330;2024-01-25T03:43:40;101659.28;;;7.37;100.00
11525;BME280;5819;49.648;8.330;2024-01-25T03:46:10;101664.53;;;7.29;100.00
11525;BME280;5819;49.648;8.330;2024-01-25T03:48:38;101671.44;;;7.27;100.00
11525;BME280;5819;49.648;8.330;2024-01-25T03:51:07;101655.88;;;7.32;100.00
11525;BME280;5819;49.648;8.330;2024-01-25T03:53:35;101656.72;;;7.31;100.00
11525;BME280;5819;49.648;8.330;2024-01-25T03:56:04;101666.16;;;7.39;100.00
11525;BME280;5819;49.648;8.330;2024-01-25T03:58:32;101671.19;;;7.56;100.00
11525;BME280;5819;49.648;8.330;2024-01-25T04:01:00;101662.59;;;7.54;100.00
11525;BME280;5819;49.648;8.330;2024-01-25T04:03:28;101672.06;;;7.57;100.00
11525;BME280;5819;49.648;8.330;2024-01-25T04:05:56;101677.34;;;7.44;100.00
11525;BME280;5819;49.648;8.330;2024-01-25T04:08:25;101679.88;;;7.47;100.00
11525;BME280;5819;49.648;8.330;2024-01-25T04:10:53;101680.69;;;7.57;100.00
11525;BME280;5819;49.648;8.330;2024-01-25T04:13:21;101682.56;;;7.37;100.00
11525;BME280;5819;49.648;8.330;2024-01-25T04:15:49;101687.75;;;7.35;100.00
11525;BME280;5819;49.648;8.330;2024-01-25T04:18:17;101697.34;;;7.26;100.00
11525;BME280;5819;49.648;8.330;2024-01-25T04:20:45;101708.53;;;7.23;100.00
11525;BME280;5819;49.648;8.330;2024-01-25T04:23:13;101707.72;;;7.21;100.00
11525;BME280;5819;49.648;8.330;2024-01-25T04:25:42;101706.84;;;7.19;100.00
11525;BME280;5819;49.648;8.330;2024-01-25T04:28:10;101706.06;;;7.06;100.00
11525;BME280;5819;49.648;8.330;2024-01-25T04:30:39;101716.50;;;6.96;100.00
11525;BME280;5819;49.648;8.330;2024-01-25T04:33:06;101719.25;;;6.59;100.00
11525;BME280;5819;49.648;8.330;2024-01-25T04:35:34;101728.88;;;6.26;100.00
11525;BME280;5819;49.648;8.330;2024-01-25T04:38:03;101744.41;;;6.00;100.00
11525;BME280;5819;49.648;8.330;2024-01-25T04:40:30;101756.44;;;5.84;100.00
11525;BME280;5819;49.648;8.330;2024-01-25T04:43:00;101739.22;;;6.09;100.00
11525;BME280;5819;49.648;8.330;2024-01-25T04:45:27;101748.66;;;6.27;100.00
11525;BME280;5819;49.648;8.330;2024-01-25T04:47:55;101756.41;;;6.30;100.00
11525;BME280;5819;49.648;8.330;2024-01-25T04:50:23;101758.09;;;6.40;100.00
11525;BME280;5819;49.648;8.330;2024-01-25T04:52:51;101756.34;;;6.48;100.00
11525;BME280;5819;49.648;8.330;2024-01-25T04:55:20;101754.66;;;6.39;100.00
11525;BME280;5819;49.648;8.330;2024-01-25T04:57:48;101754.66;;;6.32;100.00
11525;BME280;5819;49.648;8.330;2024-01-25T05:00:22;101751.22;;;6.37;100.00
11525;BME280;5819;49.648;8.330;2024-01-25T05:02:50;101756.38;;;6.39;100.00
11525;BME280;5819;49.648;8.330;2024-01-25T05:05:18;101755.53;;;6.35;100.00
11525;BME280;5819;49.648;8.330;2024-01-25T05:07:47;101757.28;;;6.29;100.00
11525;BME280;5819;49.648;8.330;2024-01-25T05:10:15;101766.75;;;6.07;100.00
11525;BME280;5819;49.648;8.330;2024-01-25T05:12:43;101774.53;;;6.01;100.00
11525;BME280;5819;49.648;8.330;2024-01-25T05:15:11;101782.28;;;5.93;100.00
11525;BME280;5819;49.648;8.330;2024-01-25T05:17:41;101777.06;;;5.83;100.00
11525;BME280;5819;49.648;8.330;2024-01-25T05:20:09;101774.53;;;5.90;100.00
11525;BME280;5819;49.648;8.330;2024-01-25T05:22:37;101777.97;;;5.86;100.00
11525;BME280;5819;49.648;8.330;2024-01-25T05:25:08;101790.00;;;5.77;100.00
11525;BME280;5819;49.648;8.330;2024-01-25T05:27:36;101788.28;;;5.70;100.00
11525;BME280;5819;49.648;8.330;2024-01-25T05:30:05;101792.56;;;5.68;100.00
11525;BME280;5819;49.648;8.330;2024-01-25T05:32:34;101783.09;;;5.59;100.00
11525;BME280;5819;49.648;8.330;2024-01-25T05:35:04;101797.72;;;5.52;100.00
11525;BME280;5819;49.648;8.330;2024-01-25T05:37:32;101795.09;;;5.42;100.00
11525;BME280;5819;49.648;8.330;2024-01-25T05:40:00;101794.25;;;5.35;100.00
11525;BME280;5819;49.648;8.330;2024-01-25T05:42:28;101805.44;;;5.33;100.00
11525;BME280;5819;49.648;8.330;2024-01-25T05:44:56;101797.66;;;5.24;100.00
11525;BME280;5819;49.648;8.330;2024-01-25T05:47:24;101810.56;;;5.21;100.00
11525;BME280;5819;49.648;8.330;2024-01-25T05:49:52;101795.06;;;5.21;100.00
11525;BME280;5819;49.648;8.330;2024-01-25T05:52:21;101794.25;;;5.32;100.00
11525;BME280;5819;49.648;8.330;2024-01-25T05:54:50;101800.25;;;5.42;100.00
11525;BME280;5819;49.648;8.330;2024-01-25T05:57:18;101783.09;;;5.51;100.00
11525;BME280;5819;49.648;8.330;2024-01-25T05:59:46;101782.25;;;5.61;100.00
11525;BME280;5819;49.648;8.330;2024-01-25T06:02:14;101782.25;;;5.68;100.00
11525;BME280;5819;49.648;8.330;2024-01-25T06:04:43;101776.22;;;5.75;100.00
11525;BME280;5819;49.648;8.330;2024-01-25T06:07:11;101762.47;;;5.91;100.00
11525;BME280;5819;49.648;8.330;2024-01-25T06:09:40;101768.50;;;5.90;100.00
11525;BME280;5819;49.648;8.330;2024-01-25T06:12:08;101773.66;;;5.87;100.00
11525;BME280;5819;49.648;8.330;2024-01-25T06:14:36;101775.38;;;5.86;100.00
11525;BME280;5819;49.648;8.330;2024-01-25T06:17:04;101784.84;;;5.72;100.00
11525;BME280;5819;49.648;8.330;2024-01-25T06:19:34;101783.97;;;5.56;100.00
11525;BME280;5819;49.648;8.330;2024-01-25T06:22:03;101795.13;;;5.43;100.00
11525;BME280;5819;49.648;8.330;2024-01-25T06:24:32;101793.38;;;5.32;100.00
11525;BME280;5819;49.648;8.330;2024-01-25T06:27:02;101798.53;;;5.29;100.00
11525;BME280;5819;49.648;8.330;2024-01-25T06:29:30;101793.38;;;5.21;100.00
11525;BME280;5819;49.648;8.330;2024-01-25T06:31:58;101797.66;;;5.21;100.00
11525;BME280;5819;49.648;8.330;2024-01-25T06:34:31;101790.78;;;5.30;100.00
11525;BME280;5819;49.648;8.330;2024-01-25T06:36:59;101791.66;;;5.32;100.00
11525;BME280;5819;49.648;8.330;2024-01-25T06:39:27;101783.94;;;5.41;100.00
11525;BME280;5819;49.648;8.330;2024-01-25T06:41:55;101783.94;;;5.50;100.00
11525;BME280;5819;49.648;8.330;2024-01-25T06:44:24;101783.97;;;5.59;100.00
11525;BME280;5819;49.648;8.330;2024-01-25T06:46:52;101790.00;;;5.61;100.00
11525;BME280;5819;49.648;8.330;2024-01-25T06:49:20;101789.97;;;5.71;100.00
11525;BME280;5819;49.648;8.330;2024-01-25T06:51:48;101788.28;;;5.68;100.00
11525;BME280;5819;49.648;8.330;2024-01-25T06:54:16;101792.56;;;5.80;100.00
11525;BME280;5819;49.648;8.330;2024-01-25T06:56:44;101799.44;;;5.58;100.00
11525;BME280;5819;49.648;8.330;2024-01-25T06:59:12;101799.38;;;5.34;100.00
11525;BME280;5819;49.648;8.330;2024-01-25T07:01:42;101809.69;;;5.17;100.00
11525;BME280;5819;49.648;8.330;2024-01-25T07:04:10;101814.81;;;5.14;100.00
11525;BME280;5819;49.648;8.330;2024-01-25T07:06:39;101804.47;;;5.06;100.00
11525;BME280;5819;49.648;8.330;2024-01-25T07:09:07;101801.03;;;4.97;100.00
11525;BME280;5819;49.648;8.330;2024-01-25T07:11:35;101802.72;;;4.93;100.00
11525;BME280;5819;49.648;8.330;2024-01-25T07:14:03;101800.13;;;4.90;100.00
11525;BME280;5819;49.648;8.330;2024-01-25T07:16:31;101809.53;;;4.84;100.00
11525;BME280;5819;49.648;8.330;2024-01-25T07:19:00;101817.25;;;4.82;100.00
11525;BME280;5819;49.648;8.330;2024-01-25T07:21:29;101812.16;;;4.85;100.00
11525;BME280;5819;49.648;8.330;2024-01-25T07:23:59;101815.56;;;4.84;100.00
11525;BME280;5819;49.648;8.330;2024-01-25T07:26:27;101816.41;;;4.86;100.00
11525;BME280;5819;49.648;8.330;2024-01-25T07:28:55;101807.88;;;4.96;100.00
11525;BME280;5819;49.648;8.330;2024-01-25T07:31:24;101804.50;;;5.14;100.00
11525;BME280;5819;49.648;8.330;2024-01-25T07:33:53;101813.13;;;5.17;100.00
11525;BME280;5819;49.648;8.330;2024-01-25T07:36:23;101819.13;;;5.16;100.00
11525;BME280;5819;49.648;8.330;2024-01-25T07:38:51;101822.56;;;5.12;100.00
11525;BME280;5819;49.648;8.330;2024-01-25T07:41:19;101817.38;;;5.05;100.00
11525;BME280;5819;49.648;8.330;2024-01-25T07:43:47;101822.53;;;5.03;100.00
11525;BME280;5819;49.648;8.330;2024-01-25T07:46:14;101827.69;;;5.05;100.00
11525;BME280;5819;49.648;8.330;2024-01-25T07:48:42;101825.97;;;5.07;100.00
11525;BME280;5819;49.648;8.330;2024-01-25T07:51:11;101835.47;;;5.18;100.00
11525;BME280;5819;49.648;8.330;2024-01-25T07:53:41;101817.47;;;5.32;100.00
11525;BME280;5819;49.648;8.330;2024-01-25T07:56:09;101808.00;;;5.42;100.00
11525;BME280;5819;49.648;8.330;2024-01-25T07:58:37;101815.78;;;5.48;100.00
11525;BME280;5819;49.648;8.330;2024-01-25T08:01:06;101810.59;;;5.43;100.00
11525;BME280;5819;49.648;8.330;2024-01-25T08:03:34;101820.06;;;5.37;100.00
11525;BME280;5819;49.648;8.330;2024-01-25T08:06:02;101826.03;;;5.25;100.00
11525;BME280;5819;49.648;8.330;2024-01-25T08:08:31;101833.75;;;5.22;100.00
11525;BME280;5819;49.648;8.330;2024-01-25T08:11:00;101827.75;;;5.34;100.00
11525;BME280;5819;49.648;8.330;2024-01-25T08:13:28;101842.41;;;5.39;100.00
11525;BME280;5819;49.648;8.330;2024-01-25T08:16:00;101849.31;;;5.43;100.00
11525;BME280;5819;49.648;8.330;2024-01-25T08:18:28;101841.56;;;5.51;100.00
11525;BME280;5819;49.648;8.330;2024-01-25T08:20:58;101835.59;;;5.65;100.00
11525;BME280;5819;49.648;8.330;2024-01-25T08:23:27;101842.50;;;5.76;100.00
11525;BME280;5819;49.648;8.330;2024-01-25T08:25:55;101846.81;;;5.90;100.00
11525;BME280;5819;49.648;8.330;2024-01-25T08:28:25;101843.41;;;5.96;100.00
11525;BME280;5819;49.648;8.330;2024-01-25T08:30:53;101838.25;;;6.08;100.00
11525;BME280;5819;49.648;8.330;2024-01-25T08:33:21;101833.94;;;6.11;100.00
11525;BME280;5819;49.648;8.330;2024-01-25T08:35:51;101833.06;;;6.19;100.00
11525;BME280;5819;49.648;8.330;2024-01-25T08:38:19;101828.75;;;6.30;100.00
11525;BME280;5819;49.648;8.330;2024-01-25T08:40:47;101829.56;;;6.42;100.00
11525;BME280;5819;49.648;8.330;2024-01-25T08:43:15;101830.44;;;6.49;100.00
11525;BME280;5819;49.648;8.330;2024-01-25T08:45:46;101830.44;;;6.61;100.00
11525;BME280;5819;49.648;8.330;2024-01-25T08:48:14;101826.94;;;6.67;100.00
11525;BME280;5819;49.648;8.330;2024-01-25T08:50:44;101825.16;;;6.91;100.00
11525;BME280;5819;49.648;8.330;2024-01-25T08:53:12;101839.81;;;6.86;100.00
11525;BME280;5819;49.648;8.330;2024-01-25T08:55:40;101838.97;;;6.84;100.00
11525;BME280;5819;49.648;8.330;2024-01-25T08:58:08;101836.34;;;6.93;100.00
11525;BME280;5819;49.648;8.330;2024-01-25T09:00:36;101844.94;;;7.03;100.00
11525;BME280;5819;49.648;8.330;2024-01-25T09:03:06;101850.91;;;7.16;100.00
11525;BME280;5819;49.648;8.330;2024-01-25T09:05:34;101843.16;;;7.22;100.00
11525;BME280;5819;49.648;8.330;2024-01-25T09:08:07;101844.78;;;7.36;100.00
11525;BME280;5819;49.648;8.330;2024-01-25T09:10:35;101841.31;;;7.39;100.00
11525;BME280;5819;49.648;8.330;2024-01-25T09:13:03;101838.69;;;7.48;100.00
11525;BME280;5819;49.648;8.330;2024-01-25T09:15:31;101826.50;;;7.64;100.00
11525;BME280;5819;49.648;8.330;2024-01-25T09:17:59;101832.44;;;7.75;100.00
11525;BME280;5819;49.648;8.330;2024-01-25T09:20:29;101829.84;;;7.79;100.00
11525;BME280;5819;49.648;8.330;2024-01-25T09:22:57;101830.59;;;7.92;100.00
11525;BME280;5819;49.648;8.330;2024-01-25T09:25:25;101823.59;;;8.05;100.00
11525;BME280;5819;49.648;8.330;2024-01-25T09:27:54;101832.03;;;8.28;100.00
11525;BME280;5819;49.648;8.330;2024-01-25T09:30:23;101822.44;;;8.39;100.00
11525;BME280;5819;49.648;8.330;2024-01-25T09:32:53;101825.97;;;8.32;100.00
11525;BME280;5819;49.648;8.330;2024-01-25T09:35:21;101831.16;;;8.33;100.00
11525;BME280;5819;49.648;8.330;2024-01-25T09:37:51;101830.22;;;8.40;100.00
11525;BME280;5819;49.648;8.330;2024-01-25T09:40:20;101830.13;;;8.46;100.00
11525;BME280;5819;49.648;8.330;2024-01-25T09:42:48;101820.50;;;8.61;100.00
11525;BME280;5819;49.648;8.330;2024-01-25T09:45:17;101819.59;;;8.65;100.00
11525;BME280;5819;49.648;8.330;2024-01-25T09:47:45;101829.06;;;8.69;100.00
11525;BME280;5819;49.648;8.330;2024-01-25T09:50:15;101827.19;;;8.80;100.00
11525;BME280;5819;49.648;8.330;2024-01-25T09:52:44;101827.09;;;8.89;100.00
11525;BME280;5819;49.648;8.330;2024-01-25T09:55:15;101818.41;;;8.91;100.00
11525;BME280;5819;49.648;8.330;2024-01-25T09:57:46;101810.53;;;8.99;100.00
11525;BME280;5819;49.648;8.330;2024-01-25T10:00:17;101804.31;;;9.11;100.00
11525;BME280;5819;49.648;8.330;2024-01-25T10:02:47;101801.53;;;9.24;100.00
11525;BME280;5819;49.648;8.330;2024-01-25T10:05:15;101802.47;;;9.20;100.00
11525;BME280;5819;49.648;8.330;2024-01-25T10:07:44;101808.47;;;9.24;100.00
11525;BME280;5819;49.648;8.330;2024-01-25T10:10:14;101803.16;;;9.33;100.00
11525;BME280;5819;49.648;8.330;2024-01-25T10:12:42;101803.03;;;9.40;100.00
11525;BME280;5819;49.648;8.330;2024-01-25T10:15:11;101803.78;;;9.50;100.00
11525;BME280;5819;49.648;8.330;2024-01-25T10:17:39;101803.75;;;9.52;100.00
11525;BME280;5819;49.648;8.330;2024-01-25T10:20:13;101799.41;;;9.52;100.00
11525;BME280;5819;49.648;8.330;2024-01-25T10:22:43;101802.88;;;9.51;100.00
11525;BME280;5819;49.648;8.330;2024-01-25T10:25:12;101808.19;;;9.45;100.00
11525;BME280;5819;49.648;8.330;2024-01-25T10:27:44;101802.75;;;9.62;100.00
11525;BME280;5819;49.648;8.330;2024-01-25T10:30:14;101811.16;;;9.77;100.00
11525;BME280;5819;49.648;8.330;2024-01-25T10:32:42;101805.78;;;9.88;100.00
11525;BME280;5819;49.648;8.330;2024-01-25T10:35:11;101811.50;;;10.10;100.00
11525;BME280;5819;49.648;8.330;2024-01-25T10:37:40;101812.56;;;9.97;99.68
11525;BME280;5819;49.648;8.330;2024-01-25T10:40:10;101808.13;;;10.03;100.00
11525;BME280;5819;49.648;8.330;2024-01-25T10:42:38;101809.75;;;10.09;99.57
11525;BME280;5819;49.648;8.330;2024-01-25T10:45:08;101806.38;;;10.04;99.88
11525;BME280;5819;49.648;8.330;2024-01-25T10:47:37;101801.00;;;10.16;99.24
11525;BME280;5819;49.648;8.330;2024-01-25T10:50:08;101786.03;;;10.30;96.22
11525;BME280;5819;49.648;8.330;2024-01-25T10:52:37;101791.75;;;9.98;95.16
11525;BME280;5819;49.648;8.330;2024-01-25T10:55:07;101798.72;;;9.96;94.22
11525;BME280;5819;49.648;8.330;2024-01-25T10:57:36;101791.09;;;9.85;94.07
11525;BME280;5819;49.648;8.330;2024-01-25T11:00:08;101788.38;;;9.93;93.77
11525;BME280;5819;49.648;8.330;2024-01-25T11:02:37;101791.97;;;9.86;94.44
11525;BME280;5819;49.648;8.330;2024-01-25T11:05:08;101788.38;;;9.93;95.45
11525;BME280;5819;49.648;8.330;2024-01-25T11:07:44;101789.66;;;10.20;95.33
11525;BME280;5819;49.648;8.330;2024-01-25T11:10:17;101794.06;;;10.16;95.53
11525;BME280;5819;49.648;8.330;2024-01-25T11:12:50;101788.22;;;10.02;94.06
11525;BME280;5819;49.648;8.330;2024-01-25T11:15:24;101789.63;;;10.23;94.10
11525;BME280;5819;49.648;8.330;2024-01-25T11:17:57;101781.50;;;10.40;92.54
11525;BME280;5819;49.648;8.330;2024-01-25T11:20:26;101782.19;;;10.49;92.30
11525;BME280;5819;49.648;8.330;2024-01-25T11:22:59;101764.81;;;10.94;92.82
11525;BME280;5819;49.648;8.330;2024-01-25T11:25:30;101753.34;;;11.03;89.75
11525;BME280;5819;49.648;8.330;2024-01-25T11:27:59;101752.47;;;11.02;90.92
11525;BME280;5819;49.648;8.330;2024-01-25T11:30:30;101753.09;;;11.13;90.94
11525;BME280;5819;49.648;8.330;2024-01-25T11:32:58;101750.34;;;11.19;89.82
11525;BME280;5819;49.648;8.330;2024-01-25T11:35:26;101741.88;;;11.10;88.21
11525;BME280;5819;49.648;8.330;2024-01-25T11:37:54;101736.53;;;11.16;87.02
11525;BME280;5819;49.648;8.330;2024-01-25T11:40:23;101731.72;;;10.99;87.00
11525;BME280;5819;49.648;8.330;2024-01-25T11:42:52;101728.28;;;10.97;87.06
11525;BME280;5819;49.648;8.330;2024-01-25T11:45:20;101725.88;;;10.88;85.29
11525;BME280;5819;49.648;8.330;2024-01-25T11:47:51;101722.31;;;10.92;85.93
11525;BME280;5819;49.648;8.330;2024-01-25T11:50:20;101725.91;;;10.87;86.03
11525;BME280;5819;49.648;8.330;2024-01-25T11:52:50;101709.72;;;11.48;85.75
11525;BME280;5819;49.648;8.330;2024-01-25T11:55:18;101712.38;;;11.46;85.44
11525;BME280;5819;49.648;8.330;2024-01-25T11:57:46;101698.00;;;11.65;85.84
11525;BME280;5819;49.648;8.330;2024-01-25T12:00:15;101698.78;;;11.35;84.08
11525;BME280;5819;49.648;8.330;2024-01-25T12:02:44;101706.50;;;11.38;84.95
11525;BME280;5819;49.648;8.330;2024-01-25T12:05:14;101700.50;;;11.35;83.45
11525;BME280;5819;49.648;8.330;2024-01-25T12:07:42;101702.09;;;11.40;83.85
11525;BME280;5819;49.648;8.330;2024-01-25T12:10:16;101695.50;;;11.61;82.48
11525;BME280;5819;49.648;8.330;2024-01-25T12:12:45;101687.09;;;11.51;80.99
11525;BME280;5819;49.648;8.330;2024-01-25T12:15:13;101684.31;;;11.57;82.21
11525;BME280;5819;49.648;8.330;2024-01-25T12:17:42;101675.91;;;11.82;81.96
11525;BME280;5819;49.648;8.330;2024-01-25T12:20:11;101660.28;;;11.80;82.40
11525;BME280;5819;49.648;8.330;2024-01-25T12:22:41;101653.31;;;11.81;81.36
11525;BME280;5819;49.648;8.330;2024-01-25T12:25:10;101646.72;;;11.66;81.15
11525;BME280;5819;49.648;8.330;2024-01-25T12:27:40;101639.31;;;11.85;81.18
11525;BME280;5819;49.648;8.330;2024-01-25T12:30:09;101644.16;;;11.64;84.46
11525;BME280;5819;49.648;8.330;2024-01-25T12:32:38;101634.69;;;11.60;83.89
11525;BME280;5819;49.648;8.330;2024-01-25T12:35:06;101628.59;;;11.61;82.30
11525;BME280;5819;49.648;8.330;2024-01-25T12:37:35;101629.38;;;11.65;81.95
11525;BME280;5819;49.648;8.330;2024-01-25T12:40:08;101625.16;;;11.93;82.67
11525;BME280;5819;49.648;8.330;2024-01-25T12:42:37;101610.69;;;12.12;81.19
11525;BME280;5819;49.648;8.330;2024-01-25T12:45:06;101609.78;;;12.15;78.26
11525;BME280;5819;49.648;8.330;2024-01-25T12:47:35;101598.28;;;12.20;77.11
11525;BME280;5819;49.648;8.330;2024-01-25T12:50:04;101608.19;;;11.79;77.11
11525;BME280;5819;49.648;8.330;2024-01-25T12:52:32;101606.91;;;11.61;75.85
11525;BME280;5819;49.648;8.330;2024-01-25T12:55:01;101594.94;;;11.54;76.68
11525;BME280;5819;49.648;8.330;2024-01-25T12:57:32;101587.47;;;11.74;76.36
11525;BME280;5819;49.648;8.330;2024-01-25T13:00:01;101589.75;;;11.85;77.78
11525;BME280;5819;49.648;8.330;2024-01-25T13:02:31;101603.31;;;11.65;76.79
11525;BME280;5819;49.648;8.330;2024-01-25T13:04:59;101603.94;;;11.42;77.96
11525;BME280;5819;49.648;8.330;2024-01-25T13:07:28;101608.94;;;11.50;78.95